McAlester, OK

11:43 PM CDT on August 29, 2015 (GMT -0500)
McAlester Regional | | Change Station
CLOSE
Current Station
Airport
Location: McAlester,
Elevation: 768 ft
Nearby Weather Stations

Elev 768 ft 34.88 °N, 95.78 °W | Updated 50 minutes ago

Mostly Cloudy
Mostly Cloudy
81 °F
Feels Like 84 °F
N
0
Wind Variable Wind from North

Today
High -- | Low -- °F
--% Chance of Precip.
Yesterday
High -- | Low -- °F
Precip. -- in
6:53 AM 7:54 PM
Full, 100% visible
Pressure 29.96 in
Visibility 10.0 miles
Clouds Overcast 8500 ft
Heat Index 84 °F
Dew Point 69 °F
Humidity 67%
Rainfall 0.14 in
Snow Depth Not available.
UV 0 out of 12
Pollen 9.30 out of 12
Air Quality Not available.
Flu Activity Not available.
METAR KMLC 300353Z AUTO 00000KT 10SM OVC085 27/21 A2999 RMK AO2 LTG DSNT SW SLP143 T02720206
Pressure 29.96 in
Visibility 10.0 miles
Clouds Overcast 8500 ft
Heat Index 84 °F
Dew Point 69 °F
Humidity 67%
Rainfall 0.14 in
Snow Depth Not available.
UV 0 out of 12
Pollen 9.30 out of 12
Air Quality Not available.
Flu Activity Not available.
METAR KMLC 300353Z AUTO 00000KT 10SM OVC085 27/21 A2999 RMK AO2 LTG DSNT SW SLP143 T02720206
Nowcast | as of 11:06 PM CDT on August 29, 2015

At 11 PM...weather radars continued to detect scattered showers and isolated thunderstorms east of a line from Jay to McAlester...moving east at 20 mph. Through 1:00 am...scattered showers and thunderstorms will continue to develop across far eastern Oklahoma and northwest Arkansas. The strongest storms could produce small hail and brief heavy downpours. Severe weather is not expected.

×

10-Day Weather Forecast

×

Almanac

Astronomy

Aug. 29, 2015 Rise Set
Actual Time
Civil Twilight
Nautical Twilight
Astronomical Twilight
Moon
Length of Visible Light
Length of Day
Tomorrow will be .
, % of the Moon is Illuminated

Today's Extremes

State Highs State Lows

Community

WunderPhotos

Upload Photos

1,850,887 photos uploaded!

WunderBlogs® & News

Nearby

Air Quality

  Air Quality AQ Index Pollutant
Not available.

Snow Depth

Station Depth Elevation

Earthquake Activity

City Distance Mag. Time & Date
Minimum magnitude displayed is 2.5.

Coastal Water Temperatures

Place Temperature

Stations

Nearby Weather Stations

Station Location Temp. Windchill Dew Point Humidity Wind Precip. Elev Updated Type